sensor_id;sensor_type;location;lat;lon;timestamp;temperature;humidity
41664;DHT22;27353;50.906;7.248;2024-03-07T00:02:15;5.60;99.90
41664;DHT22;27353;50.906;7.248;2024-03-07T00:04:43;5.60;99.90
41664;DHT22;27353;50.906;7.248;2024-03-07T00:07:08;5.60;99.90
41664;DHT22;27353;50.906;7.248;2024-03-07T00:09:35;5.60;99.90
41664;DHT22;27353;50.906;7.248;2024-03-07T00:12:01;5.60;99.90
41664;DHT22;27353;50.906;7.248;2024-03-07T00:14:27;5.50;99.90
41664;DHT22;27353;50.906;7.248;2024-03-07T00:16:56;5.50;99.90
41664;DHT22;27353;50.906;7.248;2024-03-07T00:19:22;5.50;99.90
41664;DHT22;27353;50.906;7.248;2024-03-07T00:21:51;5.40;99.90
41664;DHT22;27353;50.906;7.248;2024-03-07T00:24:17;5.40;99.90
41664;DHT22;27353;50.906;7.248;2024-03-07T00:26:42;5.40;99.90
41664;DHT22;27353;50.906;7.248;2024-03-07T00:29:08;5.30;99.90
41664;DHT22;27353;50.906;7.248;2024-03-07T00:31:33;5.30;99.90
41664;DHT22;27353;50.906;7.248;2024-03-07T00:33:59;5.20;99.90
41664;DHT22;27353;50.906;7.248;2024-03-07T00:36:25;5.20;99.90
41664;DHT22;27353;50.906;7.248;2024-03-07T00:38:54;5.20;99.90
41664;DHT22;27353;50.906;7.248;2024-03-07T00:41:19;5.10;99.90
41664;DHT22;27353;50.906;7.248;2024-03-07T00:43:46;5.10;99.90
41664;DHT22;27353;50.906;7.248;2024-03-07T00:46:12;5.10;99.90
41664;DHT22;27353;50.906;7.248;2024-03-07T00:48:37;5.10;99.90
41664;DHT22;27353;50.906;7.248;2024-03-07T00:51:04;5.00;99.90
41664;DHT22;27353;50.906;7.248;2024-03-07T00:53:30;5.00;99.90
41664;DHT22;27353;50.906;7.248;2024-03-07T00:55:56;5.00;99.90
41664;DHT22;27353;50.906;7.248;2024-03-07T00:58:22;5.00;99.90
41664;DHT22;27353;50.906;7.248;2024-03-07T01:00:47;5.00;99.90
41664;DHT22;27353;50.906;7.248;2024-03-07T01:03:14;5.00;99.90
41664;DHT22;27353;50.906;7.248;2024-03-07T01:05:40;4.90;99.90
41664;DHT22;27353;50.906;7.248;2024-03-07T01:08:06;4.90;99.90
41664;DHT22;27353;50.906;7.248;2024-03-07T01:10:31;4.90;99.90
41664;DHT22;27353;50.906;7.248;2024-03-07T01:12:57;4.80;99.90
41664;DHT22;27353;50.906;7.248;2024-03-07T01:15:27;4.80;99.90
41664;DHT22;27353;50.906;7.248;2024-03-07T01:17:52;4.80;99.90
41664;DHT22;27353;50.906;7.248;2024-03-07T01:20:18;4.70;99.90
41664;DHT22;27353;50.906;7.248;2024-03-07T01:22:44;4.70;99.90
41664;DHT22;27353;50.906;7.248;2024-03-07T01:25:10;4.60;99.90
41664;DHT22;27353;50.906;7.248;2024-03-07T01:27:35;4.60;99.90
41664;DHT22;27353;50.906;7.248;2024-03-07T01:30:01;4.60;99.90
41664;DHT22;27353;50.906;7.248;2024-03-07T01:32:27;4.60;99.90
41664;DHT22;27353;50.906;7.248;2024-03-07T01:34:53;4.50;99.90
41664;DHT22;27353;50.906;7.248;2024-03-07T01:37:20;4.50;99.90
41664;DHT22;27353;50.906;7.248;2024-03-07T01:39:45;4.50;99.90
41664;DHT22;27353;50.906;7.248;2024-03-07T01:42:12;4.40;99.90
41664;DHT22;27353;50.906;7.248;2024-03-07T01:44:38;4.40;99.90
41664;DHT22;27353;50.906;7.248;2024-03-07T01:47:07;4.30;99.90
41664;DHT22;27353;50.906;7.248;2024-03-07T01:49:33;4.30;99.90
41664;DHT22;27353;50.906;7.248;2024-03-07T01:51:58;4.30;99.90
41664;DHT22;27353;50.906;7.248;2024-03-07T01:54:25;4.20;99.90
41664;DHT22;27353;50.906;7.248;2024-03-07T01:56:52;4.20;99.90
41664;DHT22;27353;50.906;7.248;2024-03-07T01:59:18;4.20;99.90
41664;DHT22;27353;50.906;7.248;2024-03-07T02:01:46;4.20;99.90
41664;DHT22;27353;50.906;7.248;2024-03-07T02:04:12;4.20;99.90
41664;DHT22;27353;50.906;7.248;2024-03-07T02:06:38;4.20;99.90
41664;DHT22;27353;50.906;7.248;2024-03-07T02:09:04;4.10;99.90
41664;DHT22;27353;50.906;7.248;2024-03-07T02:11:31;4.10;99.90
41664;DHT22;27353;50.906;7.248;2024-03-07T02:13:57;4.20;99.90
41664;DHT22;27353;50.906;7.248;2024-03-07T02:16:23;4.20;99.90
41664;DHT22;27353;50.906;7.248;2024-03-07T02:18:49;4.20;99.90
41664;DHT22;27353;50.906;7.248;2024-03-07T02:21:15;4.20;99.90
41664;DHT22;27353;50.906;7.248;2024-03-07T02:23:41;4.20;99.90
41664;DHT22;27353;50.906;7.248;2024-03-07T02:26:06;4.20;99.90
41664;DHT22;27353;50.906;7.248;2024-03-07T02:28:33;4.20;99.90
41664;DHT22;27353;50.906;7.248;2024-03-07T02:31:00;4.10;99.90
41664;DHT22;27353;50.906;7.248;2024-03-07T02:33:25;4.00;99.90
41664;DHT22;27353;50.906;7.248;2024-03-07T02:35:51;3.90;99.90
41664;DHT22;27353;50.906;7.248;2024-03-07T02:38:18;3.90;99.90
41664;DHT22;27353;50.906;7.248;2024-03-07T02:40:43;3.80;99.90
41664;DHT22;27353;50.906;7.248;2024-03-07T02:43:09;3.70;99.90
41664;DHT22;27353;50.906;7.248;2024-03-07T02:45:34;3.60;99.90
41664;DHT22;27353;50.906;7.248;2024-03-07T02:48:00;3.60;99.90
41664;DHT22;27353;50.906;7.248;2024-03-07T02:50:25;3.50;99.90
41664;DHT22;27353;50.906;7.248;2024-03-07T02:52:51;3.50;99.90
41664;DHT22;27353;50.906;7.248;2024-03-07T02:55:17;3.50;99.90
41664;DHT22;27353;50.906;7.248;2024-03-07T02:57:44;3.40;99.90
41664;DHT22;27353;50.906;7.248;2024-03-07T03:00:11;3.40;99.90
41664;DHT22;27353;50.906;7.248;2024-03-07T03:02:48;3.40;99.90
41664;DHT22;27353;50.906;7.248;2024-03-07T03:05:18;3.40;99.90
41664;DHT22;27353;50.906;7.248;2024-03-07T03:07:44;3.40;99.90
41664;DHT22;27353;50.906;7.248;2024-03-07T03:10:22;3.40;99.90
41664;DHT22;27353;50.906;7.248;2024-03-07T03:12:58;3.40;99.90
41664;DHT22;27353;50.906;7.248;2024-03-07T03:15:25;3.40;99.90
41664;DHT22;27353;50.906;7.248;2024-03-07T03:17:50;3.40;99.90
41664;DHT22;27353;50.906;7.248;2024-03-07T03:20:17;3.40;99.90
41664;DHT22;27353;50.906;7.248;2024-03-07T03:22:59;3.50;99.90
41664;DHT22;27353;50.906;7.248;2024-03-07T03:25:25;3.40;99.90
41664;DHT22;27353;50.906;7.248;2024-03-07T03:27:51;3.40;99.90
41664;DHT22;27353;50.906;7.248;2024-03-07T03:30:17;3.40;99.90
41664;DHT22;27353;50.906;7.248;2024-03-07T03:32:47;3.40;99.90
41664;DHT22;27353;50.906;7.248;2024-03-07T03:35:16;3.50;99.90
41664;DHT22;27353;50.906;7.248;2024-03-07T03:37:42;3.50;99.90
41664;DHT22;27353;50.906;7.248;2024-03-07T03:40:08;3.50;99.90
41664;DHT22;27353;50.906;7.248;2024-03-07T03:42:36;3.50;99.90
41664;DHT22;27353;50.906;7.248;2024-03-07T03:45:03;3.40;99.90
41664;DHT22;27353;50.906;7.248;2024-03-07T03:47:34;3.30;99.90
41664;DHT22;27353;50.906;7.248;2024-03-07T03:50:02;3.30;99.90
41664;DHT22;27353;50.906;7.248;2024-03-07T03:52:28;3.30;99.90
41664;DHT22;27353;50.906;7.248;2024-03-07T03:54:54;3.30;99.90
41664;DHT22;27353;50.906;7.248;2024-03-07T03:57:20;3.30;99.90
41664;DHT22;27353;50.906;7.248;2024-03-07T03:59:45;3.30;99.90
41664;DHT22;27353;50.906;7.248;2024-03-07T04:02:11;3.20;99.90
41664;DHT22;27353;50.906;7.248;2024-03-07T04:04:40;3.20;99.90
41664;DHT22;27353;50.906;7.248;2024-03-07T04:07:05;3.20;99.90
41664;DHT22;27353;50.906;7.248;2024-03-07T04:09:31;3.10;99.90
41664;DHT22;27353;50.906;7.248;2024-03-07T04:11:57;3.10;99.90
41664;DHT22;27353;50.906;7.248;2024-03-07T04:14:24;3.00;99.90
41664;DHT22;27353;50.906;7.248;2024-03-07T04:16:50;3.00;99.90
41664;DHT22;27353;50.906;7.248;2024-03-07T04:19:16;3.10;99.90
41664;DHT22;27353;50.906;7.248;2024-03-07T04:21:43;3.10;99.90
41664;DHT22;27353;50.906;7.248;2024-03-07T04:24:09;3.10;99.90
41664;DHT22;27353;50.906;7.248;2024-03-07T04:26:35;3.10;99.90
41664;DHT22;27353;50.906;7.248;2024-03-07T04:29:00;3.10;99.90
41664;DHT22;27353;50.906;7.248;2024-03-07T04:31:26;3.10;99.90
41664;DHT22;27353;50.906;7.248;2024-03-07T04:33:51;3.10;99.90
41664;DHT22;27353;50.906;7.248;2024-03-07T04:36:17;3.20;99.90
41664;DHT22;27353;50.906;7.248;2024-03-07T04:38:42;3.20;99.90
41664;DHT22;27353;50.906;7.248;2024-03-07T04:41:13;3.10;99.90
41664;DHT22;27353;50.906;7.248;2024-03-07T04:43:40;3.20;99.90
41664;DHT22;27353;50.906;7.248;2024-03-07T04:46:08;3.20;99.90
41664;DHT22;27353;50.906;7.248;2024-03-07T04:48:33;3.10;99.90
41664;DHT22;27353;50.906;7.248;2024-03-07T04:50:59;3.10;99.90
41664;DHT22;27353;50.906;7.248;2024-03-07T04:53:24;3.10;99.90
41664;DHT22;27353;50.906;7.248;2024-03-07T04:55:50;3.10;99.90
41664;DHT22;27353;50.906;7.248;2024-03-07T04:58:16;3.00;99.90
41664;DHT22;27353;50.906;7.248;2024-03-07T05:00:42;3.00;99.90
41664;DHT22;27353;50.906;7.248;2024-03-07T05:03:07;3.00;99.90
41664;DHT22;27353;50.906;7.248;2024-03-07T05:05:33;3.00;99.90
41664;DHT22;27353;50.906;7.248;2024-03-07T05:07:58;2.90;99.90
41664;DHT22;27353;50.906;7.248;2024-03-07T05:10:24;2.90;99.90
41664;DHT22;27353;50.906;7.248;2024-03-07T05:12:50;2.80;99.90
41664;DHT22;27353;50.906;7.248;2024-03-07T05:15:16;2.80;99.90
41664;DHT22;27353;50.906;7.248;2024-03-07T05:17:42;2.70;99.90
41664;DHT22;27353;50.906;7.248;2024-03-07T05:20:09;2.80;99.90
41664;DHT22;27353;50.906;7.248;2024-03-07T05:22:36;2.70;99.90
41664;DHT22;27353;50.906;7.248;2024-03-07T05:25:06;2.70;99.90
41664;DHT22;27353;50.906;7.248;2024-03-07T05:27:32;2.70;99.90
41664;DHT22;27353;50.906;7.248;2024-03-07T05:29:58;2.70;99.90
41664;DHT22;27353;50.906;7.248;2024-03-07T05:32:25;2.70;99.90
41664;DHT22;27353;50.906;7.248;2024-03-07T05:34:51;2.70;99.90
41664;DHT22;27353;50.906;7.248;2024-03-07T05:37:19;2.70;99.90
41664;DHT22;27353;50.906;7.248;2024-03-07T05:39:47;2.70;99.90
41664;DHT22;27353;50.906;7.248;2024-03-07T05:42:13;2.60;99.90
41664;DHT22;27353;50.906;7.248;2024-03-07T05:44:43;2.60;99.90
41664;DHT22;27353;50.906;7.248;2024-03-07T05:47:09;2.60;99.90
41664;DHT22;27353;50.906;7.248;2024-03-07T05:49:35;2.60;99.90
41664;DHT22;27353;50.906;7.248;2024-03-07T05:52:02;2.50;99.90
41664;DHT22;27353;50.906;7.248;2024-03-07T05:54:28;2.50;99.90
41664;DHT22;27353;50.906;7.248;2024-03-07T05:56:54;2.50;99.90
41664;DHT22;27353;50.906;7.248;2024-03-07T05:59:20;2.50;99.90
41664;DHT22;27353;50.906;7.248;2024-03-07T06:01:46;2.50;99.90
41664;DHT22;27353;50.906;7.248;2024-03-07T06:04:13;2.50;99.90
41664;DHT22;27353;50.906;7.248;2024-03-07T06:06:40;2.50;99.90
41664;DHT22;27353;50.906;7.248;2024-03-07T06:09:08;2.50;99.90
41664;DHT22;27353;50.906;7.248;2024-03-07T06:11:37;2.60;99.90
41664;DHT22;27353;50.906;7.248;2024-03-07T06:14:04;2.60;99.90
41664;DHT22;27353;50.906;7.248;2024-03-07T06:16:37;2.60;99.90
41664;DHT22;27353;50.906;7.248;2024-03-07T06:19:04;2.70;99.90
41664;DHT22;27353;50.906;7.248;2024-03-07T06:21:30;2.70;99.90
41664;DHT22;27353;50.906;7.248;2024-03-07T06:23:56;2.70;99.90
41664;DHT22;27353;50.906;7.248;2024-03-07T06:26:32;2.70;99.90
41664;DHT22;27353;50.906;7.248;2024-03-07T06:29:10;2.80;99.90
41664;DHT22;27353;50.906;7.248;2024-03-07T06:31:39;2.80;99.90
41664;DHT22;27353;50.906;7.248;2024-03-07T06:34:05;2.80;99.90
41664;DHT22;27353;50.906;7.248;2024-03-07T06:36:32;2.90;99.90
41664;DHT22;27353;50.906;7.248;2024-03-07T06:38:58;2.90;99.90
41664;DHT22;27353;50.906;7.248;2024-03-07T06:41:23;3.00;99.90
41664;DHT22;27353;50.906;7.248;2024-03-07T06:43:50;3.00;99.90
41664;DHT22;27353;50.906;7.248;2024-03-07T06:46:16;3.00;99.90
41664;DHT22;27353;50.906;7.248;2024-03-07T06:48:42;3.10;99.90
41664;DHT22;27353;50.906;7.248;2024-03-07T06:51:09;3.20;99.90
41664;DHT22;27353;50.906;7.248;2024-03-07T06:53:35;3.20;99.90
41664;DHT22;27353;50.906;7.248;2024-03-07T06:56:00;3.20;99.90
41664;DHT22;27353;50.906;7.248;2024-03-07T06:58:26;3.30;99.90
41664;DHT22;27353;50.906;7.248;2024-03-07T07:00:52;3.30;99.90
41664;DHT22;27353;50.906;7.248;2024-03-07T07:03:20;3.40;99.90
41664;DHT22;27353;50.906;7.248;2024-03-07T07:05:46;3.40;99.90
41664;DHT22;27353;50.906;7.248;2024-03-07T07:08:12;3.50;99.90
41664;DHT22;27353;50.906;7.248;2024-03-07T07:10:39;3.40;99.90
41664;DHT22;27353;50.906;7.248;2024-03-07T07:13:06;3.40;99.90
41664;DHT22;27353;50.906;7.248;2024-03-07T07:15:31;3.50;99.90
41664;DHT22;27353;50.906;7.248;2024-03-07T07:17:58;3.50;99.90
41664;DHT22;27353;50.906;7.248;2024-03-07T07:20:24;3.60;99.90
41664;DHT22;27353;50.906;7.248;2024-03-07T07:22:50;3.80;99.90
41664;DHT22;27353;50.906;7.248;2024-03-07T07:25:16;3.90;99.90
41664;DHT22;27353;50.906;7.248;2024-03-07T07:27:46;4.10;99.90
41664;DHT22;27353;50.906;7.248;2024-03-07T07:30:14;4.10;99.90
41664;DHT22;27353;50.906;7.248;2024-03-07T07:32:40;4.30;99.90
41664;DHT22;27353;50.906;7.248;2024-03-07T07:35:07;4.30;99.90
41664;DHT22;27353;50.906;7.248;2024-03-07T07:37:35;4.40;99.90
41664;DHT22;27353;50.906;7.248;2024-03-07T07:40:02;4.60;99.90
41664;DHT22;27353;50.906;7.248;2024-03-07T07:42:28;4.70;99.90
41664;DHT22;27353;50.906;7.248;2024-03-07T07:44:53;4.90;99.90
41664;DHT22;27353;50.906;7.248;2024-03-07T07:47:19;5.00;99.90
41664;DHT22;27353;50.906;7.248;2024-03-07T07:49:45;5.30;99.90
41664;DHT22;27353;50.906;7.248;2024-03-07T07:52:11;5.30;99.90
41664;DHT22;27353;50.906;7.248;2024-03-07T07:54:42;5.50;99.90
41664;DHT22;27353;50.906;7.248;2024-03-07T07:57:08;5.50;99.90
41664;DHT22;27353;50.906;7.248;2024-03-07T07:59:33;5.70;99.90
41664;DHT22;27353;50.906;7.248;2024-03-07T08:01:59;5.70;99.90
41664;DHT22;27353;50.906;7.248;2024-03-07T08:04:25;5.70;99.90
41664;DHT22;27353;50.906;7.248;2024-03-07T08:06:50;5.80;99.90
41664;DHT22;27353;50.906;7.248;2024-03-07T08:09:17;6.20;99.90
41664;DHT22;27353;50.906;7.248;2024-03-07T08:11:42;6.10;99.90
41664;DHT22;27353;50.906;7.248;2024-03-07T08:14:08;6.60;99.90
41664;DHT22;27353;50.906;7.248;2024-03-07T08:16:33;7.20;99.90
41664;DHT22;27353;50.906;7.248;2024-03-07T08:18:59;7.80;99.90
41664;DHT22;27353;50.906;7.248;2024-03-07T08:21:25;8.90;99.90
41664;DHT22;27353;50.906;7.248;2024-03-07T08:23:51;10.00;99.90
41664;DHT22;27353;50.906;7.248;2024-03-07T08:26:17;11.00;99.90
41664;DHT22;27353;50.906;7.248;2024-03-07T08:28:42;11.30;99.90
41664;DHT22;27353;50.906;7.248;2024-03-07T08:31:08;12.50;99.90
41664;DHT22;27353;50.906;7.248;2024-03-07T08:33:34;13.40;99.90
41664;DHT22;27353;50.906;7.248;2024-03-07T08:36:00;14.00;99.90
41664;DHT22;27353;50.906;7.248;2024-03-07T08:38:26;13.90;99.90
41664;DHT22;27353;50.906;7.248;2024-03-07T08:40:52;14.20;99.50
41664;DHT22;27353;50.906;7.248;2024-03-07T08:43:17;14.70;98.70
41664;DHT22;27353;50.906;7.248;2024-03-07T08:45:43;14.60;97.30
41664;DHT22;27353;50.906;7.248;2024-03-07T08:48:08;14.40;95.90
41664;DHT22;27353;50.906;7.248;2024-03-07T08:50:35;14.30;97.40
41664;DHT22;27353;50.906;7.248;2024-03-07T08:53:03;14.90;95.80
41664;DHT22;27353;50.906;7.248;2024-03-07T08:55:30;14.40;96.30
41664;DHT22;27353;50.906;7.248;2024-03-07T08:57:56;13.60;97.40
41664;DHT22;27353;50.906;7.248;2024-03-07T09:00:22;12.40;97.30
41664;DHT22;27353;50.906;7.248;2024-03-07T09:02:48;12.70;99.00
41664;DHT22;27353;50.906;7.248;2024-03-07T09:05:17;12.10;99.20
41664;DHT22;27353;50.906;7.248;2024-03-07T09:07:44;11.60;99.50
41664;DHT22;27353;50.906;7.248;2024-03-07T09:10:12;10.80;99.90
41664;DHT22;27353;50.906;7.248;2024-03-07T09:12:37;10.00;99.90
41664;DHT22;27353;50.906;7.248;2024-03-07T09:15:04;9.20;99.90
41664;DHT22;27353;50.906;7.248;2024-03-07T09:17:30;8.70;99.90
41664;DHT22;27353;50.906;7.248;2024-03-07T09:19:55;8.30;99.90
41664;DHT22;27353;50.906;7.248;2024-03-07T09:22:21;7.90;99.90
41664;DHT22;27353;50.906;7.248;2024-03-07T09:24:46;7.90;99.90
41664;DHT22;27353;50.906;7.248;2024-03-07T09:27:12;8.00;99.90
41664;DHT22;27353;50.906;7.248;2024-03-07T09:29:40;7.70;99.90
41664;DHT22;27353;50.906;7.248;2024-03-07T09:32:06;7.80;99.90
41664;DHT22;27353;50.906;7.248;2024-03-07T09:34:34;8.00;99.90
41664;DHT22;27353;50.906;7.248;2024-03-07T09:37:01;7.80;99.90
41664;DHT22;27353;50.906;7.248;2024-03-07T09:39:27;7.80;99.90
41664;DHT22;27353;50.906;7.248;2024-03-07T09:41:53;7.80;99.90
41664;DHT22;27353;50.906;7.248;2024-03-07T09:44:20;7.70;99.90
41664;DHT22;27353;50.906;7.248;2024-03-07T09:46:54;7.60;99.90
41664;DHT22;27353;50.906;7.248;2024-03-07T09:49:20;7.60;99.90
41664;DHT22;27353;50.906;7.248;2024-03-07T09:51:47;7.20;99.90
41664;DHT22;27353;50.906;7.248;2024-03-07T09:54:13;7.40;99.90
41664;DHT22;27353;50.906;7.248;2024-03-07T09:56:41;7.60;99.90
41664;DHT22;27353;50.906;7.248;2024-03-07T09:59:11;7.80;99.90
41664;DHT22;27353;50.906;7.248;2024-03-07T10:01:37;7.80;99.90
41664;DHT22;27353;50.906;7.248;2024-03-07T10:04:08;8.20;99.90
41664;DHT22;27353;50.906;7.248;2024-03-07T10:06:38;8.90;99.90
41664;DHT22;27353;50.906;7.248;2024-03-07T10:09:10;9.40;99.90
41664;DHT22;27353;50.906;7.248;2024-03-07T10:11:39;10.00;99.90
41664;DHT22;27353;50.906;7.248;2024-03-07T10:14:04;10.40;99.90
41664;DHT22;27353;50.906;7.248;2024-03-07T10:16:31;12.10;99.90
41664;DHT22;27353;50.906;7.248;2024-03-07T10:18:57;14.20;99.90
41664;DHT22;27353;50.906;7.248;2024-03-07T10:21:23;14.60;98.20
41664;DHT22;27353;50.906;7.248;2024-03-07T10:23:50;14.40;97.50
41664;DHT22;27353;50.906;7.248;2024-03-07T10:26:18;15.90;96.10
41664;DHT22;27353;50.906;7.248;2024-03-07T10:28:45;16.80;93.90
41664;DHT22;27353;50.906;7.248;2024-03-07T10:31:10;17.30;93.60
41664;DHT22;27353;50.906;7.248;2024-03-07T10:33:40;17.90;93.00
41664;DHT22;27353;50.906;7.248;2024-03-07T10:36:08;18.50;90.10
41664;DHT22;27353;50.906;7.248;2024-03-07T10:38:39;16.80;90.30
41664;DHT22;27353;50.906;7.248;2024-03-07T10:41:06;15.60;92.80
41664;DHT22;27353;50.906;7.248;2024-03-07T10:43:36;14.10;94.30
41664;DHT22;27353;50.906;7.248;2024-03-07T10:46:05;13.00;95.40
41664;DHT22;27353;50.906;7.248;2024-03-07T10:48:38;12.10;97.10
41664;DHT22;27353;50.906;7.248;2024-03-07T10:51:37;12.40;97.80
41664;DHT22;27353;50.906;7.248;2024-03-07T10:54:18;13.20;96.70
41664;DHT22;27353;50.906;7.248;2024-03-07T10:57:23;12.80;97.70
41664;DHT22;27353;50.906;7.248;2024-03-07T10:59:56;12.70;97.30
41664;DHT22;27353;50.906;7.248;2024-03-07T11:04:50;12.30;97.90
41664;DHT22;27353;50.906;7.248;2024-03-07T11:07:21;12.40;98.00
41664;DHT22;27353;50.906;7.248;2024-03-07T11:09:49;12.70;98.60
41664;DHT22;27353;50.906;7.248;2024-03-07T11:12:15;12.30;98.40
41664;DHT22;27353;50.906;7.248;2024-03-07T11:14:42;11.50;98.50
41664;DHT22;27353;50.906;7.248;2024-03-07T11:17:09;11.70;99.50
41664;DHT22;27353;50.906;7.248;2024-03-07T11:19:35;11.20;99.60
41664;DHT22;27353;50.906;7.248;2024-03-07T11:22:04;11.30;99.90
41664;DHT22;27353;50.906;7.248;2024-03-07T11:24:40;11.50;99.90
41664;DHT22;27353;50.906;7.248;2024-03-07T11:27:11;12.00;99.90
41664;DHT22;27353;50.906;7.248;2024-03-07T11:29:41;11.80;99.40
41664;DHT22;27353;50.906;7.248;2024-03-07T11:32:12;11.60;99.90
41664;DHT22;27353;50.906;7.248;2024-03-07T11:34:39;11.20;99.30
41664;DHT22;27353;50.906;7.248;2024-03-07T11:37:08;10.70;99.90
41664;DHT22;27353;50.906;7.248;2024-03-07T11:39:45;10.50;99.90
41664;DHT22;27353;50.906;7.248;2024-03-07T11:42:23;10.20;99.90
41664;DHT22;27353;50.906;7.248;2024-03-07T11:44:57;10.70;99.90
41664;DHT22;27353;50.906;7.248;2024-03-07T11:47:23;11.20;99.90
41664;DHT22;27353;50.906;7.248;2024-03-07T11:49:50;11.80;99.90
41664;DHT22;27353;50.906;7.248;2024-03-07T11:52:18;11.20;99.90
41664;DHT22;27353;50.906;7.248;2024-03-07T11:54:43;10.70;99.90
41664;DHT22;27353;50.906;7.248;2024-03-07T11:57:13;10.60;99.90
41664;DHT22;27353;50.906;7.248;2024-03-07T11:59:42;11.10;99.90
41664;DHT22;27353;50.906;7.248;2024-03-07T12:02:13;12.20;99.90
41664;DHT22;27353;50.906;7.248;2024-03-07T12:04:41;13.40;98.80
41664;DHT22;27353;50.906;7.248;2024-03-07T12:07:07;15.30;96.30
41664;DHT22;27353;50.906;7.248;2024-03-07T12:09:38;15.60;94.60
41664;DHT22;27353;50.906;7.248;2024-03-07T12:12:05;15.30;93.20
41664;DHT22;27353;50.906;7.248;2024-03-07T12:14:31;15.90;93.60
41664;DHT22;27353;50.906;7.248;2024-03-07T12:16:57;15.40;93.80
41664;DHT22;27353;50.906;7.248;2024-03-07T12:19:23;14.10;94.80
41664;DHT22;27353;50.906;7.248;2024-03-07T12:21:49;12.90;96.80
41664;DHT22;27353;50.906;7.248;2024-03-07T12:24:15;12.20;99.00
41664;DHT22;27353;50.906;7.248;2024-03-07T12:26:41;12.00;98.50
41664;DHT22;27353;50.906;7.248;2024-03-07T12:29:11;11.60;99.80
41664;DHT22;27353;50.906;7.248;2024-03-07T12:31:39;11.00;99.80
41664;DHT22;27353;50.906;7.248;2024-03-07T12:34:05;10.50;99.90
41664;DHT22;27353;50.906;7.248;2024-03-07T12:36:35;10.00;99.90
41664;DHT22;27353;50.906;7.248;2024-03-07T12:39:21;10.00;99.90
41664;DHT22;27353;50.906;7.248;2024-03-07T12:41:50;11.70;99.90
41664;DHT22;27353;50.906;7.248;2024-03-07T12:44:21;12.80;99.40
41664;DHT22;27353;50.906;7.248;2024-03-07T12:46:48;13.80;97.20
41664;DHT22;27353;50.906;7.248;2024-03-07T12:49:15;14.60;95.90
41664;DHT22;27353;50.906;7.248;2024-03-07T12:51:43;14.30;97.10
41664;DHT22;27353;50.906;7.248;2024-03-07T12:54:09;13.40;96.40
41664;DHT22;27353;50.906;7.248;2024-03-07T12:56:36;14.30;97.00
41664;DHT22;27353;50.906;7.248;2024-03-07T12:59:06;15.10;94.60
41664;DHT22;27353;50.906;7.248;2024-03-07T13:01:35;16.00;93.90
41664;DHT22;27353;50.906;7.248;2024-03-07T13:04:05;16.00;92.60
41664;DHT22;27353;50.906;7.248;2024-03-07T13:06:34;14.50;93.90
41664;DHT22;27353;50.906;7.248;2024-03-07T13:08:59;13.70;96.60
41664;DHT22;27353;50.906;7.248;2024-03-07T13:11:25;14.00;96.00
41664;DHT22;27353;50.906;7.248;2024-03-07T13:13:55;13.10;95.60
41664;DHT22;27353;50.906;7.248;2024-03-07T13:16:22;12.80;97.30
41664;DHT22;27353;50.906;7.248;2024-03-07T13:18:53;14.10;96.70
41664;DHT22;27353;50.906;7.248;2024-03-07T13:21:19;15.60;95.80
41664;DHT22;27353;50.906;7.248;2024-03-07T13:23:45;16.00;94.00
41664;DHT22;27353;50.906;7.248;2024-03-07T13:26:11;14.90;94.70
41664;DHT22;27353;50.906;7.248;2024-03-07T13:28:42;15.10;93.80
41664;DHT22;27353;50.906;7.248;2024-03-07T13:31:10;14.50;95.10
41664;DHT22;27353;50.906;7.248;2024-03-07T13:33:37;13.70;95.70
41664;DHT22;27353;50.906;7.248;2024-03-07T13:36:03;12.80;95.60
41664;DHT22;27353;50.906;7.248;2024-03-07T13:38:29;11.90;97.80
41664;DHT22;27353;50.906;7.248;2024-03-07T13:40:55;11.60;99.00
41664;DHT22;27353;50.906;7.248;2024-03-07T13:43:22;11.30;98.60
41664;DHT22;27353;50.906;7.248;2024-03-07T13:45:48;10.60;99.20
41664;DHT22;27353;50.906;7.248;2024-03-07T13:48:14;10.40;99.90
41664;DHT22;27353;50.906;7.248;2024-03-07T13:50:42;9.90;99.90
41664;DHT22;27353;50.906;7.248;2024-03-07T13:53:14;9.90;99.90
41664;DHT22;27353;50.906;7.248;2024-03-07T14:12:44;9.80;99.90
41664;DHT22;27353;50.906;7.248;2024-03-07T14:27:30;10.20;99.90
41664;DHT22;27353;50.906;7.248;2024-03-07T14:32:58;10.10;99.90
41664;DHT22;27353;50.906;7.248;2024-03-07T14:40:48;10.30;99.90
41664;DHT22;27353;50.906;7.248;2024-03-07T14:43:15;10.20;99.90
41664;DHT22;27353;50.906;7.248;2024-03-07T14:45:42;10.30;99.90
41664;DHT22;27353;50.906;7.248;2024-03-07T14:48:09;10.30;99.90
41664;DHT22;27353;50.906;7.248;2024-03-07T14:50:39;10.20;99.90
41664;DHT22;27353;50.906;7.248;2024-03-07T14:53:05;10.20;99.90
41664;DHT22;27353;50.906;7.248;2024-03-07T14:55:32;10.10;99.90
41664;DHT22;27353;50.906;7.248;2024-03-07T14:57:58;10.60;99.90
41664;DHT22;27353;50.906;7.248;2024-03-07T15:00:25;11.20;99.90
41664;DHT22;27353;50.906;7.248;2024-03-07T15:02:54;11.70;99.90
41664;DHT22;27353;50.906;7.248;2024-03-07T15:05:24;12.10;99.40
41664;DHT22;27353;50.906;7.248;2024-03-07T15:07:53;11.70;98.80
41664;DHT22;27353;50.906;7.248;2024-03-07T15:10:23;12.00;99.10
41664;DHT22;27353;50.906;7.248;2024-03-07T15:12:52;12.10;99.60
41664;DHT22;27353;50.906;7.248;2024-03-07T15:15:18;11.40;99.90
41664;DHT22;27353;50.906;7.248;2024-03-07T15:17:48;11.10;99.90
41664;DHT22;27353;50.906;7.248;2024-03-07T15:20:14;10.80;99.90
41664;DHT22;27353;50.906;7.248;2024-03-07T15:22:52;10.40;99.90
41664;DHT22;27353;50.906;7.248;2024-03-07T15:25:18;10.10;99.90
41664;DHT22;27353;50.906;7.248;2024-03-07T15:27:44;9.90;99.90
41664;DHT22;27353;50.906;7.248;2024-03-07T15:30:18;9.80;99.90
41664;DHT22;27353;50.906;7.248;2024-03-07T15:32:45;9.90;99.90
41664;DHT22;27353;50.906;7.248;2024-03-07T15:35:11;9.90;99.90
41664;DHT22;27353;50.906;7.248;2024-03-07T15:37:39;9.90;99.90
41664;DHT22;27353;50.906;7.248;2024-03-07T15:40:09;9.60;99.90
41664;DHT22;27353;50.906;7.248;2024-03-07T15:42:43;9.50;99.90
41664;DHT22;27353;50.906;7.248;2024-03-07T15:45:13;9.40;99.90
41664;DHT22;27353;50.906;7.248;2024-03-07T15:47:53;9.20;99.90
41664;DHT22;27353;50.906;7.248;2024-03-07T15:50:20;9.20;99.90
41664;DHT22;27353;50.906;7.248;2024-03-07T15:52:51;9.00;99.90
41664;DHT22;27353;50.906;7.248;2024-03-07T15:55:17;8.90;99.90
41664;DHT22;27353;50.906;7.248;2024-03-07T15:57:47;8.90;99.90
41664;DHT22;27353;50.906;7.248;2024-03-07T16:00:16;9.00;99.90
41664;DHT22;27353;50.906;7.248;2024-03-07T16:02:55;8.80;99.90
41664;DHT22;27353;50.906;7.248;2024-03-07T16:05:25;8.80;99.90
41664;DHT22;27353;50.906;7.248;2024-03-07T16:07:53;8.90;99.90
41664;DHT22;27353;50.906;7.248;2024-03-07T16:10:20;8.80;99.90
41664;DHT22;27353;50.906;7.248;2024-03-07T16:12:46;8.80;99.90
41664;DHT22;27353;50.906;7.248;2024-03-07T16:15:12;8.90;99.90
41664;DHT22;27353;50.906;7.248;2024-03-07T16:17:39;8.90;99.90
41664;DHT22;27353;50.906;7.248;2024-03-07T16:20:05;8.90;99.90
41664;DHT22;27353;50.906;7.248;2024-03-07T16:22:46;8.90;99.90